sensor_id;sensor_type;location;lat;lon;timestamp;temperature;humidity
19561;DHT22;9927;47.792;10.616;2024-01-30T04:02:56;-0.10;99.90
19561;DHT22;9927;47.792;10.616;2024-01-30T04:05:23;-0.20;99.90
19561;DHT22;9927;47.792;10.616;2024-01-30T04:07:50;-0.10;99.90
19561;DHT22;9927;47.792;10.616;2024-01-30T04:10:18;-0.20;99.90
19561;DHT22;9927;47.792;10.616;2024-01-30T04:12:45;-0.20;99.90
19561;DHT22;9927;47.792;10.616;2024-01-30T04:15:13;-0.20;99.90
19561;DHT22;9927;47.792;10.616;2024-01-30T04:17:40;-0.20;99.90
19561;DHT22;9927;47.792;10.616;2024-01-30T04:20:09;-0.10;99.90
19561;DHT22;9927;47.792;10.616;2024-01-30T04:22:39;-0.20;99.90
19561;DHT22;9927;47.792;10.616;2024-01-30T04:25:06;-0.20;99.90
19561;DHT22;9927;47.792;10.616;2024-01-30T04:27:34;-0.20;99.90
19561;DHT22;9927;47.792;10.616;2024-01-30T04:30:01;-0.20;99.90
19561;DHT22;9927;47.792;10.616;2024-01-30T04:32:29;-0.20;99.90
19561;DHT22;9927;47.792;10.616;2024-01-30T04:34:56;-0.10;99.90
19561;DHT22;9927;47.792;10.616;2024-01-30T04:37:24;-0.20;99.90
19561;DHT22;9927;47.792;10.616;2024-01-30T04:39:51;-0.20;99.90
19561;DHT22;9927;47.792;10.616;2024-01-30T04:42:19;-0.20;99.90
19561;DHT22;9927;47.792;10.616;2024-01-30T04:44:46;-0.20;99.90
19561;DHT22;9927;47.792;10.616;2024-01-30T04:47:13;-0.30;99.90
19561;DHT22;9927;47.792;10.616;2024-01-30T04:49:41;-0.30;99.90
19561;DHT22;9927;47.792;10.616;2024-01-30T04:52:09;-0.30;99.90
19561;DHT22;9927;47.792;10.616;2024-01-30T04:54:36;-0.30;99.90
19561;DHT22;9927;47.792;10.616;2024-01-30T04:57:03;-0.30;99.90
19561;DHT22;9927;47.792;10.616;2024-01-30T04:59:32;-0.20;99.90
19561;DHT22;9927;47.792;10.616;2024-01-30T05:02:00;-0.20;99.90
19561;DHT22;9927;47.792;10.616;2024-01-30T05:04:27;-0.20;99.90
19561;DHT22;9927;47.792;10.616;2024-01-30T05:06:58;-0.20;99.90
19561;DHT22;9927;47.792;10.616;2024-01-30T05:09:25;-0.20;99.90
19561;DHT22;9927;47.792;10.616;2024-01-30T05:11:53;-0.20;99.90
19561;DHT22;9927;47.792;10.616;2024-01-30T05:14:20;-0.20;99.90
19561;DHT22;9927;47.792;10.616;2024-01-30T05:16:47;-0.10;99.90
19561;DHT22;9927;47.792;10.616;2024-01-30T05:19:15;-0.10;99.90
19561;DHT22;9927;47.792;10.616;2024-01-30T05:21:42;-0.10;99.90
19561;DHT22;9927;47.792;10.616;2024-01-30T05:24:10;-0.10;99.90
19561;DHT22;9927;47.792;10.616;2024-01-30T05:26:37;-0.20;99.90
19561;DHT22;9927;47.792;10.616;2024-01-30T05:29:05;-0.20;99.90
19561;DHT22;9927;47.792;10.616;2024-01-30T05:31:33;-0.20;99.90
19561;DHT22;9927;47.792;10.616;2024-01-30T05:34:01;-0.10;99.90
19561;DHT22;9927;47.792;10.616;2024-01-30T05:36:29;-0.10;99.90
19561;DHT22;9927;47.792;10.616;2024-01-30T05:38:56;-0.10;99.90
19561;DHT22;9927;47.792;10.616;2024-01-30T05:41:24;-0.20;99.90
19561;DHT22;9927;47.792;10.616;2024-01-30T05:43:51;-0.20;99.90
19561;DHT22;9927;47.792;10.616;2024-01-30T05:46:19;-0.20;99.90
19561;DHT22;9927;47.792;10.616;2024-01-30T05:48:50;-0.20;99.90
19561;DHT22;9927;47.792;10.616;2024-01-30T05:51:17;-0.20;99.90
19561;DHT22;9927;47.792;10.616;2024-01-30T05:53:44;-0.20;99.90
19561;DHT22;9927;47.792;10.616;2024-01-30T05:56:12;-0.10;99.90
19561;DHT22;9927;47.792;10.616;2024-01-30T05:58:39;-0.10;99.90
19561;DHT22;9927;47.792;10.616;2024-01-30T06:01:09;-0.10;99.90
19561;DHT22;9927;47.792;10.616;2024-01-30T06:03:37;-0.20;99.90
19561;DHT22;9927;47.792;10.616;2024-01-30T06:06:05;-0.20;99.90
19561;DHT22;9927;47.792;10.616;2024-01-30T06:08:33;-0.20;99.90
19561;DHT22;9927;47.792;10.616;2024-01-30T06:11:00;-0.10;99.90
19561;DHT22;9927;47.792;10.616;2024-01-30T06:13:28;-0.20;99.90
19561;DHT22;9927;47.792;10.616;2024-01-30T06:15:57;-0.20;99.90
19561;DHT22;9927;47.792;10.616;2024-01-30T06:18:25;-0.20;99.90
19561;DHT22;9927;47.792;10.616;2024-01-30T06:20:54;-0.20;99.90
19561;DHT22;9927;47.792;10.616;2024-01-30T06:23:21;-0.20;99.90
19561;DHT22;9927;47.792;10.616;2024-01-30T06:25:48;-0.10;99.90
19561;DHT22;9927;47.792;10.616;2024-01-30T06:28:15;-0.20;99.90
19561;DHT22;9927;47.792;10.616;2024-01-30T06:30:43;-0.30;99.90
19561;DHT22;9927;47.792;10.616;2024-01-30T06:33:12;-0.30;99.90
19561;DHT22;9927;47.792;10.616;2024-01-30T06:35:40;-0.30;99.90
19561;DHT22;9927;47.792;10.616;2024-01-30T06:38:11;-0.30;99.90
19561;DHT22;9927;47.792;10.616;2024-01-30T06:40:38;-0.30;99.90
19561;DHT22;9927;47.792;10.616;2024-01-30T06:43:05;-0.30;99.90
19561;DHT22;9927;47.792;10.616;2024-01-30T06:45:33;-0.30;99.90
19561;DHT22;9927;47.792;10.616;2024-01-30T06:48:01;-0.20;99.90
19561;DHT22;9927;47.792;10.616;2024-01-30T06:50:28;-0.20;99.90
19561;DHT22;9927;47.792;10.616;2024-01-30T06:52:56;-0.20;99.90
19561;DHT22;9927;47.792;10.616;2024-01-30T06:55:23;-0.10;99.90
19561;DHT22;9927;47.792;10.616;2024-01-30T06:57:51;-0.10;99.90
19561;DHT22;9927;47.792;10.616;2024-01-30T07:00:18;-0.10;99.90
19561;DHT22;9927;47.792;10.616;2024-01-30T07:02:47;-0.10;99.90
19561;DHT22;9927;47.792;10.616;2024-01-30T07:05:14;-0.20;99.90
19561;DHT22;9927;47.792;10.616;2024-01-30T07:07:42;-0.20;99.90
19561;DHT22;9927;47.792;10.616;2024-01-30T07:10:09;-0.10;99.90
19561;DHT22;9927;47.792;10.616;2024-01-30T07:12:37;-0.10;99.90
19561;DHT22;9927;47.792;10.616;2024-01-30T07:15:05;0.00;99.90
19561;DHT22;9927;47.792;10.616;2024-01-30T07:17:35;0.00;99.90
19561;DHT22;9927;47.792;10.616;2024-01-30T07:20:03;0.00;99.90
19561;DHT22;9927;47.792;10.616;2024-01-30T07:22:34;0.10;99.90
19561;DHT22;9927;47.792;10.616;2024-01-30T07:25:01;0.20;99.90
19561;DHT22;9927;47.792;10.616;2024-01-30T07:27:28;0.40;99.90
19561;DHT22;9927;47.792;10.616;2024-01-30T07:29:55;0.40;99.90
19561;DHT22;9927;47.792;10.616;2024-01-30T07:32:23;0.50;99.90
19561;DHT22;9927;47.792;10.616;2024-01-30T07:34:51;0.50;99.90
19561;DHT22;9927;47.792;10.616;2024-01-30T07:37:33;0.50;99.90
19561;DHT22;9927;47.792;10.616;2024-01-30T07:40:01;0.50;99.90
19561;DHT22;9927;47.792;10.616;2024-01-30T07:42:29;0.50;99.90
19561;DHT22;9927;47.792;10.616;2024-01-30T07:44:56;0.60;99.90
19561;DHT22;9927;47.792;10.616;2024-01-30T07:47:23;0.70;99.90
19561;DHT22;9927;47.792;10.616;2024-01-30T07:49:50;0.80;99.90
19561;DHT22;9927;47.792;10.616;2024-01-30T07:52:18;0.80;99.90
19561;DHT22;9927;47.792;10.616;2024-01-30T07:54:46;0.90;99.90
19561;DHT22;9927;47.792;10.616;2024-01-30T07:57:13;0.90;99.90
19561;DHT22;9927;47.792;10.616;2024-01-30T07:59:42;1.10;99.90
19561;DHT22;9927;47.792;10.616;2024-01-30T08:02:12;1.20;99.90
19561;DHT22;9927;47.792;10.616;2024-01-30T08:04:40;1.20;99.90
19561;DHT22;9927;47.792;10.616;2024-01-30T08:07:07;1.20;99.90
19561;DHT22;9927;47.792;10.616;2024-01-30T08:09:35;1.30;99.90
19561;DHT22;9927;47.792;10.616;2024-01-30T08:12:03;1.40;99.90
19561;DHT22;9927;47.792;10.616;2024-01-30T08:14:30;1.50;99.90
19561;DHT22;9927;47.792;10.616;2024-01-30T08:16:57;1.50;99.90
19561;DHT22;9927;47.792;10.616;2024-01-30T08:19:24;1.60;99.90
19561;DHT22;9927;47.792;10.616;2024-01-30T08:21:52;1.70;99.90
19561;DHT22;9927;47.792;10.616;2024-01-30T08:24:19;1.80;99.90
19561;DHT22;9927;47.792;10.616;2024-01-30T08:26:46;2.00;99.90
19561;DHT22;9927;47.792;10.616;2024-01-30T08:29:14;2.10;99.90
19561;DHT22;9927;47.792;10.616;2024-01-30T08:31:41;2.10;99.90
19561;DHT22;9927;47.792;10.616;2024-01-30T08:34:08;2.20;99.90
19561;DHT22;9927;47.792;10.616;2024-01-30T08:36:36;2.30;99.90
19561;DHT22;9927;47.792;10.616;2024-01-30T08:39:03;2.40;99.90
19561;DHT22;9927;47.792;10.616;2024-01-30T08:41:32;2.60;99.90
19561;DHT22;9927;47.792;10.616;2024-01-30T08:44:00;2.90;99.90
19561;DHT22;9927;47.792;10.616;2024-01-30T08:46:27;3.10;99.90
19561;DHT22;9927;47.792;10.616;2024-01-30T08:48:54;3.30;99.90
19561;DHT22;9927;47.792;10.616;2024-01-30T08:51:22;3.50;99.90
19561;DHT22;9927;47.792;10.616;2024-01-30T08:53:49;3.60;99.90
19561;DHT22;9927;47.792;10.616;2024-01-30T08:56:16;3.80;99.90
19561;DHT22;9927;47.792;10.616;2024-01-30T08:58:44;4.00;99.90
19561;DHT22;9927;47.792;10.616;2024-01-30T09:01:11;4.20;99.90
19561;DHT22;9927;47.792;10.616;2024-01-30T09:03:38;4.40;99.90
19561;DHT22;9927;47.792;10.616;2024-01-30T09:06:11;4.50;99.90
19561;DHT22;9927;47.792;10.616;2024-01-30T09:08:39;4.60;99.90
19561;DHT22;9927;47.792;10.616;2024-01-30T09:11:13;4.70;99.90
19561;DHT22;9927;47.792;10.616;2024-01-30T09:13:41;4.70;99.90
19561;DHT22;9927;47.792;10.616;2024-01-30T09:16:08;4.70;99.90
19561;DHT22;9927;47.792;10.616;2024-01-30T09:18:36;4.80;99.90
19561;DHT22;9927;47.792;10.616;2024-01-30T09:21:03;4.80;99.90
19561;DHT22;9927;47.792;10.616;2024-01-30T09:23:30;4.90;99.90
19561;DHT22;9927;47.792;10.616;2024-01-30T09:25:58;5.00;99.90
19561;DHT22;9927;47.792;10.616;2024-01-30T09:28:25;5.00;99.90
19561;DHT22;9927;47.792;10.616;2024-01-30T09:30:54;5.20;99.90
19561;DHT22;9927;47.792;10.616;2024-01-30T09:33:21;5.30;99.90
19561;DHT22;9927;47.792;10.616;2024-01-30T09:35:48;5.40;99.90
19561;DHT22;9927;47.792;10.616;2024-01-30T09:38:16;5.50;99.90
19561;DHT22;9927;47.792;10.616;2024-01-30T09:40:45;5.60;99.90
19561;DHT22;9927;47.792;10.616;2024-01-30T09:43:17;5.70;99.90
19561;DHT22;9927;47.792;10.616;2024-01-30T09:45:53;5.80;99.90
19561;DHT22;9927;47.792;10.616;2024-01-30T09:48:21;6.00;99.90
19561;DHT22;9927;47.792;10.616;2024-01-30T09:50:50;6.20;99.90
19561;DHT22;9927;47.792;10.616;2024-01-30T09:53:18;6.40;99.90
19561;DHT22;9927;47.792;10.616;2024-01-30T09:56:05;6.50;99.90
19561;DHT22;9927;47.792;10.616;2024-01-30T09:58:32;6.60;99.90
19561;DHT22;9927;47.792;10.616;2024-01-30T10:01:00;6.70;99.90
19561;DHT22;9927;47.792;10.616;2024-01-30T10:03:27;6.70;99.90
19561;DHT22;9927;47.792;10.616;2024-01-30T10:05:55;6.80;99.90
19561;DHT22;9927;47.792;10.616;2024-01-30T10:10:50;7.00;99.90
19561;DHT22;9927;47.792;10.616;2024-01-30T10:13:18;7.20;99.90
19561;DHT22;9927;47.792;10.616;2024-01-30T10:15:47;7.30;99.90
19561;DHT22;9927;47.792;10.616;2024-01-30T10:18:15;7.40;99.90
19561;DHT22;9927;47.792;10.616;2024-01-30T10:20:42;7.50;99.90
19561;DHT22;9927;47.792;10.616;2024-01-30T10:23:09;7.50;99.90
19561;DHT22;9927;47.792;10.616;2024-01-30T10:25:37;7.60;99.90
19561;DHT22;9927;47.792;10.616;2024-01-30T10:28:06;7.70;99.90
19561;DHT22;9927;47.792;10.616;2024-01-30T10:30:33;7.80;99.90
19561;DHT22;9927;47.792;10.616;2024-01-30T10:33:00;7.80;99.90
19561;DHT22;9927;47.792;10.616;2024-01-30T10:35:28;7.80;99.90
19561;DHT22;9927;47.792;10.616;2024-01-30T10:37:57;7.90;99.90
19561;DHT22;9927;47.792;10.616;2024-01-30T10:40:28;8.00;99.90
19561;DHT22;9927;47.792;10.616;2024-01-30T10:42:56;8.20;99.90
19561;DHT22;9927;47.792;10.616;2024-01-30T10:45:26;8.20;99.90
19561;DHT22;9927;47.792;10.616;2024-01-30T10:47:55;8.50;99.90
19561;DHT22;9927;47.792;10.616;2024-01-30T10:50:27;8.60;99.90
19561;DHT22;9927;47.792;10.616;2024-01-30T10:52:55;8.70;99.90
19561;DHT22;9927;47.792;10.616;2024-01-30T10:55:22;8.80;99.90
19561;DHT22;9927;47.792;10.616;2024-01-30T10:57:51;9.00;99.90
19561;DHT22;9927;47.792;10.616;2024-01-30T11:00:18;9.10;99.90
19561;DHT22;9927;47.792;10.616;2024-01-30T11:02:49;9.20;99.90
19561;DHT22;9927;47.792;10.616;2024-01-30T11:05:24;9.40;99.90
19561;DHT22;9927;47.792;10.616;2024-01-30T11:08:09;9.50;99.90
19561;DHT22;9927;47.792;10.616;2024-01-30T11:10:47;9.60;99.90
19561;DHT22;9927;47.792;10.616;2024-01-30T11:13:16;9.80;99.90
19561;DHT22;9927;47.792;10.616;2024-01-30T11:15:43;9.90;99.90
19561;DHT22;9927;47.792;10.616;2024-01-30T11:18:10;10.00;99.90
19561;DHT22;9927;47.792;10.616;2024-01-30T11:20:38;10.10;99.90
19561;DHT22;9927;47.792;10.616;2024-01-30T11:23:12;10.20;99.90
19561;DHT22;9927;47.792;10.616;2024-01-30T11:25:39;10.30;99.90
19561;DHT22;9927;47.792;10.616;2024-01-30T11:28:14;10.40;99.90
19561;DHT22;9927;47.792;10.616;2024-01-30T11:30:42;10.50;99.90
19561;DHT22;9927;47.792;10.616;2024-01-30T11:33:12;10.60;99.90
19561;DHT22;9927;47.792;10.616;2024-01-30T11:35:44;10.70;99.90
19561;DHT22;9927;47.792;10.616;2024-01-30T11:38:14;10.80;99.90
19561;DHT22;9927;47.792;10.616;2024-01-30T11:40:42;10.80;99.90
19561;DHT22;9927;47.792;10.616;2024-01-30T11:43:10;10.90;99.90
19561;DHT22;9927;47.792;10.616;2024-01-30T11:45:39;11.00;99.90
19561;DHT22;9927;47.792;10.616;2024-01-30T11:48:07;11.10;99.90
19561;DHT22;9927;47.792;10.616;2024-01-30T11:50:38;11.10;99.90
19561;DHT22;9927;47.792;10.616;2024-01-30T11:53:06;11.10;99.90
19561;DHT22;9927;47.792;10.616;2024-01-30T11:55:34;11.10;99.90
19561;DHT22;9927;47.792;10.616;2024-01-30T11:58:04;11.20;99.90
19561;DHT22;9927;47.792;10.616;2024-01-30T12:00:32;11.20;99.90
19561;DHT22;9927;47.792;10.616;2024-01-30T12:03:01;11.20;99.90
19561;DHT22;9927;47.792;10.616;2024-01-30T12:05:30;11.30;99.90
19561;DHT22;9927;47.792;10.616;2024-01-30T12:07:57;11.30;99.90
19561;DHT22;9927;47.792;10.616;2024-01-30T12:10:29;11.40;99.90
19561;DHT22;9927;47.792;10.616;2024-01-30T12:12:57;11.40;99.90
19561;DHT22;9927;47.792;10.616;2024-01-30T12:15:26;11.40;99.90
19561;DHT22;9927;47.792;10.616;2024-01-30T12:18:06;11.40;99.90
19561;DHT22;9927;47.792;10.616;2024-01-30T12:20:35;11.50;99.90
19561;DHT22;9927;47.792;10.616;2024-01-30T12:23:03;11.50;99.90
19561;DHT22;9927;47.792;10.616;2024-01-30T12:25:30;11.60;99.90
19561;DHT22;9927;47.792;10.616;2024-01-30T12:27:58;11.70;99.90
19561;DHT22;9927;47.792;10.616;2024-01-30T12:30:26;11.80;99.90
19561;DHT22;9927;47.792;10.616;2024-01-30T12:32:55;11.80;99.90
19561;DHT22;9927;47.792;10.616;2024-01-30T12:35:23;11.80;99.90
19561;DHT22;9927;47.792;10.616;2024-01-30T12:37:51;11.80;99.90
19561;DHT22;9927;47.792;10.616;2024-01-30T12:40:18;11.80;99.90
19561;DHT22;9927;47.792;10.616;2024-01-30T12:42:47;11.80;99.90
19561;DHT22;9927;47.792;10.616;2024-01-30T12:45:17;12.00;99.90
19561;DHT22;9927;47.792;10.616;2024-01-30T12:47:50;12.00;99.90
19561;DHT22;9927;47.792;10.616;2024-01-30T12:50:18;12.00;99.90
19561;DHT22;9927;47.792;10.616;2024-01-30T12:52:46;12.00;99.90
19561;DHT22;9927;47.792;10.616;2024-01-30T12:55:16;12.00;99.90
19561;DHT22;9927;47.792;10.616;2024-01-30T12:57:44;12.00;99.90
19561;DHT22;9927;47.792;10.616;2024-01-30T13:00:12;11.90;99.90
19561;DHT22;9927;47.792;10.616;2024-01-30T13:02:39;11.90;99.90
19561;DHT22;9927;47.792;10.616;2024-01-30T13:05:08;11.90;99.90
19561;DHT22;9927;47.792;10.616;2024-01-30T13:07:35;11.90;99.50
19561;DHT22;9927;47.792;10.616;2024-01-30T13:10:03;11.90;99.90
19561;DHT22;9927;47.792;10.616;2024-01-30T13:12:31;11.90;99.90
19561;DHT22;9927;47.792;10.616;2024-01-30T13:15:00;11.90;99.90
19561;DHT22;9927;47.792;10.616;2024-01-30T13:17:32;11.90;99.90
19561;DHT22;9927;47.792;10.616;2024-01-30T13:20:00;11.80;99.90
19561;DHT22;9927;47.792;10.616;2024-01-30T13:22:37;11.80;99.10
19561;DHT22;9927;47.792;10.616;2024-01-30T13:25:06;11.80;98.20
19561;DHT22;9927;47.792;10.616;2024-01-30T13:27:35;11.70;98.30
19561;DHT22;9927;47.792;10.616;2024-01-30T13:30:02;11.80;97.90
19561;DHT22;9927;47.792;10.616;2024-01-30T13:32:30;11.80;97.90
19561;DHT22;9927;47.792;10.616;2024-01-30T13:34:58;11.80;98.50
19561;DHT22;9927;47.792;10.616;2024-01-30T13:37:25;11.80;98.20
19561;DHT22;9927;47.792;10.616;2024-01-30T13:39:53;11.90;98.40
19561;DHT22;9927;47.792;10.616;2024-01-30T13:42:20;11.90;98.60
19561;DHT22;9927;47.792;10.616;2024-01-30T13:44:48;11.90;99.20
19561;DHT22;9927;47.792;10.616;2024-01-30T13:47:15;11.90;99.40
19561;DHT22;9927;47.792;10.616;2024-01-30T13:49:42;12.00;99.40
19561;DHT22;9927;47.792;10.616;2024-01-30T13:52:10;11.90;98.90
19561;DHT22;9927;47.792;10.616;2024-01-30T13:54:37;12.00;99.20
19561;DHT22;9927;47.792;10.616;2024-01-30T13:57:04;12.00;99.90
19561;DHT22;9927;47.792;10.616;2024-01-30T13:59:32;12.00;99.90
19561;DHT22;9927;47.792;10.616;2024-01-30T14:01:59;12.00;99.90
19561;DHT22;9927;47.792;10.616;2024-01-30T14:04:27;12.00;99.90
19561;DHT22;9927;47.792;10.616;2024-01-30T14:06:54;12.10;99.90
19561;DHT22;9927;47.792;10.616;2024-01-30T14:09:30;12.30;99.90
19561;DHT22;9927;47.792;10.616;2024-01-30T14:11:59;12.30;99.90
19561;DHT22;9927;47.792;10.616;2024-01-30T14:14:26;12.40;99.90
19561;DHT22;9927;47.792;10.616;2024-01-30T14:16:54;12.40;99.90
19561;DHT22;9927;47.792;10.616;2024-01-30T14:19:21;12.30;99.90
19561;DHT22;9927;47.792;10.616;2024-01-30T14:21:49;12.10;99.90
19561;DHT22;9927;47.792;10.616;2024-01-30T14:24:16;12.10;99.90
19561;DHT22;9927;47.792;10.616;2024-01-30T14:26:43;12.00;99.90
19561;DHT22;9927;47.792;10.616;2024-01-30T14:29:11;11.80;99.90
19561;DHT22;9927;47.792;10.616;2024-01-30T14:31:38;11.70;99.90
19561;DHT22;9927;47.792;10.616;2024-01-30T14:34:06;11.60;99.90
19561;DHT22;9927;47.792;10.616;2024-01-30T14:36:33;11.60;99.90
19561;DHT22;9927;47.792;10.616;2024-01-30T14:39:00;11.60;99.90
19561;DHT22;9927;47.792;10.616;2024-01-30T14:41:27;11.50;99.90
19561;DHT22;9927;47.792;10.616;2024-01-30T14:43:55;11.40;99.90
19561;DHT22;9927;47.792;10.616;2024-01-30T14:46:25;11.40;99.90
19561;DHT22;9927;47.792;10.616;2024-01-30T14:48:54;11.30;99.90
19561;DHT22;9927;47.792;10.616;2024-01-30T14:51:21;11.20;99.90
19561;DHT22;9927;47.792;10.616;2024-01-30T14:53:49;11.20;99.90
19561;DHT22;9927;47.792;10.616;2024-01-30T14:56:16;11.20;99.90
19561;DHT22;9927;47.792;10.616;2024-01-30T14:58:44;11.10;99.90
19561;DHT22;9927;47.792;10.616;2024-01-30T15:01:12;11.10;99.90
19561;DHT22;9927;47.792;10.616;2024-01-30T15:03:39;10.90;99.90
19561;DHT22;9927;47.792;10.616;2024-01-30T15:06:07;10.90;99.90
19561;DHT22;9927;47.792;10.616;2024-01-30T15:08:35;11.00;99.90
19561;DHT22;9927;47.792;10.616;2024-01-30T15:11:02;10.80;99.90
19561;DHT22;9927;47.792;10.616;2024-01-30T15:13:31;10.80;99.90
19561;DHT22;9927;47.792;10.616;2024-01-30T15:15:59;10.80;99.90
19561;DHT22;9927;47.792;10.616;2024-01-30T15:18:26;10.80;99.90
19561;DHT22;9927;47.792;10.616;2024-01-30T15:20:54;10.70;99.90
19561;DHT22;9927;47.792;10.616;2024-01-30T15:23:21;10.60;99.90
19561;DHT22;9927;47.792;10.616;2024-01-30T15:25:48;10.60;99.90
19561;DHT22;9927;47.792;10.616;2024-01-30T15:28:15;10.60;99.90
19561;DHT22;9927;47.792;10.616;2024-01-30T15:30:44;10.50;99.90
19561;DHT22;9927;47.792;10.616;2024-01-30T15:33:11;10.40;99.90
19561;DHT22;9927;47.792;10.616;2024-01-30T15:35:39;10.40;99.90
19561;DHT22;9927;47.792;10.616;2024-01-30T15:38:07;10.20;99.90
19561;DHT22;9927;47.792;10.616;2024-01-30T15:40:35;10.20;99.90
19561;DHT22;9927;47.792;10.616;2024-01-30T15:43:03;10.10;99.90
19561;DHT22;9927;47.792;10.616;2024-01-30T15:45:31;10.00;99.90
19561;DHT22;9927;47.792;10.616;2024-01-30T15:47:59;9.90;99.90
19561;DHT22;9927;47.792;10.616;2024-01-30T15:50:26;9.80;99.90
19561;DHT22;9927;47.792;10.616;2024-01-30T15:52:54;9.80;99.90
19561;DHT22;9927;47.792;10.616;2024-01-30T15:55:21;9.70;99.90
19561;DHT22;9927;47.792;10.616;2024-01-30T15:57:48;9.60;99.90
19561;DHT22;9927;47.792;10.616;2024-01-30T16:00:16;9.40;99.90
19561;DHT22;9927;47.792;10.616;2024-01-30T16:02:43;9.40;99.90
19561;DHT22;9927;47.792;10.616;2024-01-30T16:05:11;9.30;99.90
19561;DHT22;9927;47.792;10.616;2024-01-30T16:07:38;9.20;99.90
19561;DHT22;9927;47.792;10.616;2024-01-30T16:10:06;9.00;99.90
19561;DHT22;9927;47.792;10.616;2024-01-30T16:12:38;9.00;99.90
19561;DHT22;9927;47.792;10.616;2024-01-30T16:15:09;8.80;99.90
19561;DHT22;9927;47.792;10.616;2024-01-30T16:17:36;8.70;99.90
19561;DHT22;9927;47.792;10.616;2024-01-30T16:20:04;8.60;99.90
19561;DHT22;9927;47.792;10.616;2024-01-30T16:22:32;8.50;99.90
19561;DHT22;9927;47.792;10.616;2024-01-30T16:25:01;8.30;99.90
19561;DHT22;9927;47.792;10.616;2024-01-30T16:27:28;8.20;99.90
19561;DHT22;9927;47.792;10.616;2024-01-30T16:29:56;8.20;99.90
19561;DHT22;9927;47.792;10.616;2024-01-30T16:32:23;8.00;99.90
19561;DHT22;9927;47.792;10.616;2024-01-30T16:34:50;7.90;99.90
19561;DHT22;9927;47.792;10.616;2024-01-30T16:37:18;7.80;99.90
19561;DHT22;9927;47.792;10.616;2024-01-30T16:39:45;7.70;99.90
19561;DHT22;9927;47.792;10.616;2024-01-30T16:42:12;7.40;99.90
19561;DHT22;9927;47.792;10.616;2024-01-30T16:44:40;7.30;99.90
19561;DHT22;9927;47.792;10.616;2024-01-30T16:47:07;7.20;99.90
19561;DHT22;9927;47.792;10.616;2024-01-30T16:49:34;7.20;99.90
19561;DHT22;9927;47.792;10.616;2024-01-30T16:52:02;7.10;99.90
19561;DHT22;9927;47.792;10.616;2024-01-30T16:54:31;7.10;99.90
19561;DHT22;9927;47.792;10.616;2024-01-30T16:56:59;6.90;99.90
19561;DHT22;9927;47.792;10.616;2024-01-30T16:59:26;6.70;99.90
19561;DHT22;9927;47.792;10.616;2024-01-30T17:01:53;6.60;99.90
19561;DHT22;9927;47.792;10.616;2024-01-30T17:04:21;6.50;99.90
19561;DHT22;9927;47.792;10.616;2024-01-30T17:06:49;6.50;99.90
19561;DHT22;9927;47.792;10.616;2024-01-30T17:09:19;6.50;99.90
19561;DHT22;9927;47.792;10.616;2024-01-30T17:11:46;6.50;99.90
19561;DHT22;9927;47.792;10.616;2024-01-30T17:14:14;6.40;99.90
19561;DHT22;9927;47.792;10.616;2024-01-30T17:16:43;6.40;99.90
19561;DHT22;9927;47.792;10.616;2024-01-30T17:19:17;6.40;99.90
19561;DHT22;9927;47.792;10.616;2024-01-30T17:21:44;6.20;99.90
19561;DHT22;9927;47.792;10.616;2024-01-30T17:24:12;6.20;99.90
19561;DHT22;9927;47.792;10.616;2024-01-30T17:26:42;5.90;99.90
19561;DHT22;9927;47.792;10.616;2024-01-30T17:29:12;5.90;99.90
19561;DHT22;9927;47.792;10.616;2024-01-30T17:31:42;5.80;99.90
19561;DHT22;9927;47.792;10.616;2024-01-30T17:34:12;5.70;99.90
19561;DHT22;9927;47.792;10.616;2024-01-30T17:36:39;5.60;99.90
19561;DHT22;9927;47.792;10.616;2024-01-30T17:39:06;5.60;99.90
19561;DHT22;9927;47.792;10.616;2024-01-30T17:41:35;5.60;99.90
19561;DHT22;9927;47.792;10.616;2024-01-30T17:44:05;5.50;99.90
19561;DHT22;9927;47.792;10.616;2024-01-30T17:46:32;5.50;99.90
19561;DHT22;9927;47.792;10.616;2024-01-30T17:48:59;5.50;99.90
19561;DHT22;9927;47.792;10.616;2024-01-30T17:51:27;5.50;99.90
19561;DHT22;9927;47.792;10.616;2024-01-30T17:53:54;5.60;99.90
19561;DHT22;9927;47.792;10.616;2024-01-30T17:56:25;5.60;99.90
19561;DHT22;9927;47.792;10.616;2024-01-30T17:58:52;5.50;99.90
19561;DHT22;9927;47.792;10.616;2024-01-30T18:01:20;5.50;99.90
19561;DHT22;9927;47.792;10.616;2024-01-30T18:03:47;5.30;99.90
19561;DHT22;9927;47.792;10.616;2024-01-30T18:06:15;5.30;99.90
19561;DHT22;9927;47.792;10.616;2024-01-30T18:08:43;5.30;99.90
19561;DHT22;9927;47.792;10.616;2024-01-30T18:11:10;5.30;99.90
19561;DHT22;9927;47.792;10.616;2024-01-30T18:13:38;5.30;99.90
19561;DHT22;9927;47.792;10.616;2024-01-30T18:16:05;5.30;99.90
19561;DHT22;9927;47.792;10.616;2024-01-30T18:18:32;5.20;99.90
19561;DHT22;9927;47.792;10.616;2024-01-30T18:21:00;5.20;99.90
19561;DHT22;9927;47.792;10.616;2024-01-30T18:23:27;5.10;99.90
19561;DHT22;9927;47.792;10.616;2024-01-30T18:25:55;5.00;99.90
19561;DHT22;9927;47.792;10.616;2024-01-30T18:28:27;4.90;99.90
19561;DHT22;9927;47.792;10.616;2024-01-30T18:30:54;4.90;99.90
19561;DHT22;9927;47.792;10.616;2024-01-30T18:33:23;4.90;99.90
19561;DHT22;9927;47.792;10.616;2024-01-30T18:35:51;4.80;99.90
19561;DHT22;9927;47.792;10.616;2024-01-30T18:38:18;4.80;99.90
19561;DHT22;9927;47.792;10.616;2024-01-30T18:40:46;4.70;99.90
19561;DHT22;9927;47.792;10.616;2024-01-30T18:43:14;4.70;99.90
19561;DHT22;9927;47.792;10.616;2024-01-30T18:45:41;4.70;99.90
19561;DHT22;9927;47.792;10.616;2024-01-30T18:48:09;4.70;99.90
19561;DHT22;9927;47.792;10.616;2024-01-30T18:50:36;4.60;99.90
19561;DHT22;9927;47.792;10.616;2024-01-30T18:53:03;4.60;99.90
19561;DHT22;9927;47.792;10.616;2024-01-30T18:55:31;4.50;99.90
19561;DHT22;9927;47.792;10.616;2024-01-30T18:57:58;4.50;99.90
19561;DHT22;9927;47.792;10.616;2024-01-30T19:00:25;4.60;99.90
19561;DHT22;9927;47.792;10.616;2024-01-30T19:02:55;4.50;99.90
19561;DHT22;9927;47.792;10.616;2024-01-30T19:05:22;4.60;99.90
19561;DHT22;9927;47.792;10.616;2024-01-30T19:07:50;4.50;99.90
19561;DHT22;9927;47.792;10.616;2024-01-30T19:10:17;4.50;99.90
19561;DHT22;9927;47.792;10.616;2024-01-30T19:13:01;4.50;99.90
19561;DHT22;9927;47.792;10.616;2024-01-30T19:15:29;4.50;99.90
19561;DHT22;9927;47.792;10.616;2024-01-30T19:17:56;4.30;99.90
19561;DHT22;9927;47.792;10.616;2024-01-30T19:20:23;4.30;99.90
19561;DHT22;9927;47.792;10.616;2024-01-30T19:22:51;4.30;99.90
19561;DHT22;9927;47.792;10.616;2024-01-30T19:25:18;4.30;99.90
19561;DHT22;9927;47.792;10.616;2024-01-30T19:27:45;4.30;99.90
19561;DHT22;9927;47.792;10.616;2024-01-30T19:30:13;4.20;99.90
19561;DHT22;9927;47.792;10.616;2024-01-30T19:32:40;4.30;99.90
19561;DHT22;9927;47.792;10.616;2024-01-30T19:35:08;4.30;99.90
19561;DHT22;9927;47.792;10.616;2024-01-30T19:37:35;4.40;99.90
19561;DHT22;9927;47.792;10.616;2024-01-30T19:40:05;4.30;99.90
19561;DHT22;9927;47.792;10.616;2024-01-30T19:42:33;4.30;99.90
19561;DHT22;9927;47.792;10.616;2024-01-30T19:45:01;4.30;99.90
19561;DHT22;9927;47.792;10.616;2024-01-30T19:47:28;4.30;99.90